Celtic Explorer — EIGB — position and weather

sailwx.info

Track history (hours):
 
Tides and Currents Weather Stations Pressure Air Temp Water Temp Dewpoint Dewpoint Depression Visibility Wind Speed Wind Dir Waves Ship Positions

Oceanographic research ship Celtic Explorer (Ireland)

Detailed information on ship capabilities available from University of Delaware's Ocean Information Center.

Last reported at 2017-Aug-17 20:51 UTC. Time now 2017-Aug-19 15:00 UTC.
Position N 55°58' E 007°45'.

Type: . MMSI: 250487000.

Date/timePositionNaut miles runAvg speedWind from/ knotsBaromVisibWave heightAir tempDewpointWater temp
2017-Aug-17 20:51N 55°58' E 007°45'510.9
2017-Aug-17 20:21N 55°53' E 007°41'410.9
2017-Aug-17 19:59N 55°50' E 007°37'510.8
2017-Aug-17 19:30N 55°45' E 007°33'510.8
2017-Aug-17 19:00N 55°41' E 007°28'510.8
2017-Aug-17 18:30N 55°36' E 007°23'4 8.8
2017-Aug-17 18:00N 55°32' E 007°27'5 9.7
2017-Aug-17 17:30N 55°28' E 007°32'5 9.6
2017-Aug-17 17:00N 55°25' E 007°38'5 9.8
2017-Aug-17 16:30N 55°21' E 007°43'5 9.8
2017-Aug-17 16:00N 55°17' E 007°49'5 9.7
2017-Aug-17 15:31N 55°14' E 007°54'5 9.6
2017-Aug-17 15:00N 55°10' E 007°60'10 4.0
2017-Aug-17 12:27N 54°60' E 008°03'2 3.5
2017-Aug-17 11:59N 54°60' E 007°60'0 0.3
2017-Aug-17 11:30N 54°60' E 007°60'5 9.3
2017-Aug-17 11:00N 54°58' E 007°53'5 9.2
2017-Aug-17 10:30N 54°57' E 007°45'4 8.8
2017-Aug-17 10:00N 54°59' E 007°38'2 3.5
2017-Aug-17 09:30N 55°00' E 007°35'4 7.3
2017-Aug-17 09:00N 55°00' E 007°29'5 9.2
2017-Aug-17 08:30N 55°00' E 007°21'5 9.4
2017-Aug-17 08:00N 54°60' E 007°12'5 9.2
2017-Aug-17 07:30N 55°00' E 007°04'2 4.9
2017-Aug-17 07:00N 55°00' E 007°00'4 8.4
2017-Aug-17 06:30N 55°00' E 006°53'5 9.6
2017-Aug-17 06:00N 55°00' E 006°44'5 9.6
2017-Aug-17 05:30N 55°01' E 006°36'5 9.7
2017-Aug-17 05:00N 55°01' E 006°28'243 8.9
2017-Aug-16 01:35N 55°00' W 000°36'210.2
2017-Aug-16 01:22N 54°60' W 000°40'0 1.3
2017-Aug-16 00:59N 54°60' W 000°39'1810.1
2017-Aug-15 23:13N 54°44' W 000°24'2 9.7
2017-Aug-15 23:00N 54°42' W 000°22'5 9.6
2017-Aug-15 22:30N 54°38' W 000°18'5 9.4
2017-Aug-15 22:00N 54°34' W 000°14'5 9.1
2017-Aug-15 21:30N 54°30' W 000°10'1 2.2
2017-Aug-15 21:00N 54°29' W 000°09'5 9.2
2017-Aug-15 20:31N 54°25' W 000°05'5 9.4
2017-Aug-15 20:00N 54°21' W 000°01'5 9.7
2017-Aug-15 19:30N 54°17' E 000°03'5 9.9
2017-Aug-15 19:00N 54°13' E 000°07'510.0
2017-Aug-15 18:30N 54°08' E 000°11'510.4
2017-Aug-15 18:00N 54°04' E 000°16'5 5.7
2017-Aug-15 17:12N 53°60' E 000°20'210.1
2017-Aug-15 17:00N 54°00' E 000°23'510.6
2017-Aug-15 16:29N 54°00' E 000°33'510.5
2017-Aug-15 15:59N 54°00' E 000°42'45 5.0
2017-Aug-15 06:59N 53°33' E 001°43'510.6
2017-Aug-15 06:29N 53°28' E 001°40'511.0
2017-Aug-15 06:00N 53°23' E 001°37'4 8.1
2017-Aug-15 05:30N 53°20' E 001°40'2 4.3
2017-Aug-15 05:00N 53°18' E 001°41'611.1
2017-Aug-15 04:30N 53°13' E 001°44'611.0
2017-Aug-15 04:00N 53°08' E 001°50'510.4
2017-Aug-15 03:30N 53°04' E 001°56'5 9.7
2017-Aug-15 03:00N 53°00' E 002°01'5 9.2
2017-Aug-15 02:30N 52°57' E 002°06'4 8.5
2017-Aug-15 02:00N 52°53' E 002°09'4 7.6
2017-Aug-15 01:31N 52°50' E 002°10'1 2.3
2017-Aug-15 01:00N 52°49' E 002°11'4 8.8
2017-Aug-15 00:30N 52°45' E 002°15'4 9.0
2017-Aug-15 00:00N 52°41' E 002°19'5 9.4
2017-Aug-14 23:30N 52°37' E 002°23'5 9.8
2017-Aug-14 23:00N 52°33' E 002°27'3 6.8
2017-Aug-14 22:30N 52°30' E 002°30'2 3.6
2017-Aug-14 22:00N 52°28' E 002°29'510.7
2017-Aug-14 21:30N 52°24' E 002°24'611.2
2017-Aug-14 21:00N 52°19' E 002°19'711.4
2017-Aug-14 20:23N 52°13' E 002°13'411.6
2017-Aug-14 20:00N 52°09' E 002°09'611.9
2017-Aug-14 19:30N 52°04' E 002°04'5 9.2
2017-Aug-14 19:00N 52°00' E 002°00'1 1.9
2017-Aug-14 18:30N 52°00' E 002°02'5 9.9
2017-Aug-14 17:59N 51°59' E 002°10'6 8.3
2017-Aug-14 17:13N 51°57' E 002°20'1 2.9
2017-Aug-14 16:55N 51°56' E 002°21'4 5.8
2017-Aug-14 16:12N 51°54' E 002°27'210.2
2017-Aug-14 16:00N 51°53' E 002°30'510.6
2017-Aug-14 15:30N 51°50' E 002°37'510.3
2017-Aug-14 15:00N 51°47' E 002°43'510.2
2017-Aug-14 14:30N 51°43' E 002°49'2 4.2
2017-Aug-14 14:00N 51°42' E 002°51'5 9.1
2017-Aug-14 13:30N 51°43' E 002°58'611.6
2017-Aug-14 13:00N 51°45' E 003°07'612.0
2017-Aug-14 12:29N 51°49' E 003°16'1734.2
2017-Aug-14 11:59N 51°57' E 003°41'0 0.0
2017-Aug-14 11:30N 51°57' E 003°41'0 0.0
2017-Aug-14 11:00N 51°57' E 003°41'4 7.5
2017-Aug-14 10:30N 51°60' E 003°44'2 4.2
2017-Aug-14 10:00N 52°02' E 003°44'611.1
2017-Aug-14 09:30N 52°07' E 003°46'510.1
2017-Aug-14 09:00N 52°12' E 003°46'5 9.8
2017-Aug-14 08:29N 52°17' E 003°48'5 9.6
2017-Aug-14 08:00N 52°22' E 003°49'5 9.4
2017-Aug-14 07:26N 52°27' E 003°51'5 8.1
2017-Aug-14 06:53N 52°31' E 003°54'6 9.6
2017-Aug-14 06:13N 52°31' E 004°05'3 9.5
2017-Aug-14 05:55N 52°31' E 004°10'4 9.9
2017-Aug-14 05:30N 52°31' E 004°16'2 4.0
2017-Aug-14 05:00N 52°31' E 004°20'510.0
2017-Aug-14 04:30N 52°36' E 004°18'511.0
2017-Aug-14 04:00N 52°40' E 004°13'151 4.2
2017-Aug-12 16:25N 54°02' E 007°45'510.5
2017-Aug-12 15:59N 54°01' E 007°52'510.3
2017-Aug-12 15:30N 54°01' E 008°01'3 7.0
2017-Aug-12 15:00N 54°00' E 008°07'2 3.1
2017-Aug-12 14:30N 54°00' E 008°09'510.6
2017-Aug-12 14:00N 53°60' E 008°18'510.0
2017-Aug-12 13:30N 53°59' E 008°27'5 9.2
2017-Aug-12 13:00N 53°58' E 008°34'4 8.5
2017-Aug-12 12:30N 53°56' E 008°40'3 6.7
2017-Aug-12 12:00N 53°53' E 008°43'2 3.6
2017-Aug-12 11:30N 53°51' E 008°45'510.8
2017-Aug-12 11:00N 53°51' E 008°54'612.6
2017-Aug-12 10:30N 53°53' E 009°05'612.1
2017-Aug-12 10:00N 53°53' E 009°15'713.4
2017-Aug-12 09:30N 53°48' E 009°23'713.7
2017-Aug-12 09:01N 53°42' E 009°30'510.6
2017-Aug-12 08:30N 53°37' E 009°33'3 6.0
2017-Aug-12 08:01N 53°35' E 009°37'612.9
2017-Aug-12 07:30N 53°34' E 009°47'4 8.5
2017-Aug-12 07:01N 53°33' E 009°54'3 6.6
2017-Aug-12 06:31N 53°32' E 009°59'0 0.1
2017-Aug-12 06:00N 53°32' E 009°59'0 0.0
2017-Aug-12 05:30N 53°32' E 009°59'0 0.0
2017-Aug-12 05:00N 53°32' E 009°59'0 0.0
2017-Aug-12 04:30N 53°32' E 009°59'0 0.0
2017-Aug-12 04:00N 53°32' E 009°59'0 0.0
2017-Aug-12 03:30N 53°32' E 009°59'0 0.0
2017-Aug-12 03:00N 53°32' E 009°59'0 0.0
2017-Aug-12 02:30N 53°32' E 009°59'0 0.0
2017-Aug-12 02:00N 53°32' E 009°59'0 0.0
2017-Aug-12 01:30N 53°32' E 009°59'0 0.0
2017-Aug-12 01:00N 53°32' E 009°59'0 0.0
2017-Aug-12 00:30N 53°32' E 009°59'0 0.0
2017-Aug-12 00:00N 53°32' E 009°59'0 0.0
2017-Aug-11 23:30N 53°32' E 009°59'0 0.0
2017-Aug-11 23:00N 53°32' E 009°59'0 0.0
2017-Aug-11 22:30N 53°32' E 009°59'0 0.0
2017-Aug-11 22:00N 53°32' E 009°59'0 0.0
2017-Aug-11 21:30N 53°32' E 009°59'0 0.0
2017-Aug-11 21:00N 53°32' E 009°59'0 0.0
2017-Aug-11 20:30N 53°32' E 009°59'0 0.0
2017-Aug-11 20:00N 53°32' E 009°59'0 0.0
2017-Aug-11 19:30N 53°32' E 009°59'0 0.0
2017-Aug-11 19:00N 53°32' E 009°59'0 0.0
2017-Aug-11 18:27N 53°32' E 009°59'0 0.0
2017-Aug-11 18:00N 53°32' E 009°59'0 0.0
2017-Aug-11 17:30N 53°32' E 009°59'0 0.0
2017-Aug-11 17:00N 53°32' E 009°59'0 0.0
2017-Aug-11 16:30N 53°32' E 009°59'0 0.0
2017-Aug-11 16:00N 53°32' E 009°59'0 0.0
2017-Aug-11 15:30N 53°32' E 009°59'0 0.0
2017-Aug-11 15:00N 53°32' E 009°59'0 0.0
2017-Aug-11 14:30N 53°32' E 009°59'0 0.0
2017-Aug-11 13:30N 53°32' E 009°59'0 0.0
2017-Aug-11 13:00N 53°32' E 009°59'0 0.0
2017-Aug-11 12:30N 53°32' E 009°59'0 0.0
2017-Aug-11 12:00N 53°32' E 009°59'0 0.0
2017-Aug-11 11:30N 53°32' E 009°59'0 0.0
2017-Aug-11 11:00N 53°32' E 009°59'0 0.0
2017-Aug-11 10:30N 53°32' E 009°59'0 0.0
2017-Aug-11 10:00N 53°32' E 009°59'0 0.0
2017-Aug-11 09:30N 53°32' E 009°59'0 0.0
2017-Aug-11 09:00N 53°32' E 009°59'0 0.0
2017-Aug-11 08:30N 53°32' E 009°59'0 0.0
2017-Aug-11 08:00N 53°32' E 009°59'0 0.0
2017-Aug-11 07:30N 53°32' E 009°59'0 0.0
2017-Aug-11 07:00N 53°32' E 009°59'0 0.0
2017-Aug-11 06:30N 53°32' E 009°59'0 0.0
2017-Aug-11 06:00N 53°32' E 009°59'0 0.0
2017-Aug-11 05:30N 53°32' E 009°59'0 0.0
2017-Aug-11 05:00N 53°32' E 009°59'0 0.0
2017-Aug-11 04:30N 53°32' E 009°59'0 0.0
2017-Aug-11 04:00N 53°32' E 009°59'0 0.0
2017-Aug-11 03:30N 53°32' E 009°59'0 0.0
2017-Aug-11 03:00N 53°32' E 009°59'0 0.0
2017-Aug-11 02:30N 53°32' E 009°59'0 0.0
2017-Aug-11 02:00N 53°32' E 009°59'0 0.0
2017-Aug-11 01:30N 53°32' E 009°59'0 0.0
2017-Aug-11 01:00N 53°32' E 009°59'0 0.0
2017-Aug-11 00:30N 53°32' E 009°59'0 0.0
2017-Aug-11 00:00N 53°32' E 009°59'0 0.0
2017-Aug-10 23:30N 53°32' E 009°59'0 0.0
2017-Aug-10 23:00N 53°32' E 009°59'0 0.0
2017-Aug-10 22:30N 53°32' E 009°59'0 0.0
2017-Aug-10 22:00N 53°32' E 009°59'0 0.0
2017-Aug-10 21:30N 53°32' E 009°59'0 0.0
2017-Aug-10 21:00N 53°32' E 009°59'0 0.0
2017-Aug-10 20:30N 53°32' E 009°59'0 0.0
2017-Aug-10 20:00N 53°32' E 009°59'0 0.0
2017-Aug-10 19:30N 53°32' E 009°59'0 0.0
2017-Aug-10 19:00N 53°32' E 009°59'0 0.0
2017-Aug-10 18:30N 53°32' E 009°59'0 0.0
2017-Aug-10 18:00N 53°32' E 009°59'0 0.0
2017-Aug-10 17:30N 53°32' E 009°59'0 0.1
2017-Aug-10 17:00N 53°32' E 009°59'0 0.0
2017-Aug-10 16:30N 53°32' E 009°59'0 0.0
2017-Aug-10 16:00N 53°32' E 009°59'0 0.0
2017-Aug-10 15:30N 53°32' E 009°59'0 0.0
2017-Aug-10 15:00N 53°32' E 009°59'0 0.0
2017-Aug-10 14:30N 53°32' E 009°59'0 0.0
2017-Aug-10 13:57N 53°32' E 009°59'0 0.0
2017-Aug-10 13:30N 53°32' E 009°59'0 0.0
2017-Aug-10 13:00N 53°32' E 009°59'0 0.0
2017-Aug-10 12:30N 53°32' E 009°59'0 0.0
2017-Aug-10 12:00N 53°32' E 009°59'0 0.4
2017-Aug-10 11:31N 53°32' E 009°59'4 8.1
2017-Aug-10 11:00N 53°33' E 009°53'5 9.8
2017-Aug-10 10:30N 53°34' E 009°45'511.0
2017-Aug-10 10:01N 53°36' E 009°36'611.3
2017-Aug-10 09:30N 53°40' E 009°30'611.6
2017-Aug-10 09:00N 53°45' E 009°25'611.4
2017-Aug-10 08:30N 53°50' E 009°21'510.9
2017-Aug-10 08:00N 53°53' E 009°12'510.0
2017-Aug-10 07:30N 53°52' E 009°04'510.5
2017-Aug-10 07:00N 53°51' E 008°55'510.0
2017-Aug-10 06:31N 53°50' E 008°47'4 7.9
2017-Aug-10 06:00N 53°53' E 008°42'5 9.3
2017-Aug-10 05:30N 53°57' E 008°38'1010.8
2017-Aug-10 04:33N 53°59' E 008°21'12 9.5
2017-Aug-10 03:15N 53°58' E 007°60'2 5.1
2017-Aug-10 02:51N 53°58' E 007°56'1 3.1
2017-Aug-10 02:30N 53°58' E 007°54'101 6.9
2017-Aug-09 11:57N 53°30' E 005°10'3 7.0
2017-Aug-09 11:30N 53°29' E 005°05'3 7.0
2017-Aug-09 11:00N 53°28' E 004°60'3 6.9
2017-Aug-09 10:30N 53°27' E 004°55'4 7.0
2017-Aug-09 10:00N 53°26' E 004°49'4110.2
2017-Aug-09 06:00N 52°51' E 004°14'10810.2
2017-Aug-08 19:24N 51°30' E 002°17'4 9.1
2017-Aug-08 19:00N 51°27' E 002°13'5 9.6
2017-Aug-08 18:30N 51°22' E 002°10'5 9.9
2017-Aug-08 18:00N 51°18' E 002°07'510.1
2017-Aug-08 17:30N 51°13' E 002°03'5 9.9
2017-Aug-08 17:00N 51°11' E 001°57'510.3
2017-Aug-08 16:30N 51°08' E 001°49'510.7
2017-Aug-08 16:00N 51°05' E 001°43'611.1
2017-Aug-08 15:30N 51°01' E 001°37'611.5
2017-Aug-08 15:00N 50°57' E 001°30'5910.5
2017-Aug-08 09:23N 50°22' E 000°15'512.5
2017-Aug-08 09:00N 50°21' E 000°07'912.4
2017-Aug-08 08:18N 50°19' W 000°06'4510.6
2017-Aug-08 04:01N 50°07' W 001°14'0 8.3
2017-Aug-08 04:00N 50°07' W 001°15'4 7.9
2017-Aug-08 03:30N 50°06' W 001°21'5 7.7
2017-Aug-08 02:52N 50°05' W 001°28'2 6.6
2017-Aug-08 02:30N 50°04' W 001°31'3 6.5
2017-Aug-08 02:00N 50°04' W 001°36'3 6.2
2017-Aug-08 01:30N 50°03' W 001°41'3 6.5
2017-Aug-08 01:00N 50°02' W 001°46'3 7.0
2017-Aug-08 00:30N 50°01' W 001°51'4 7.7
2017-Aug-08 00:00N 49°60' W 001°57'2910.0
2017-Aug-07 21:03N 49°52' W 002°41'111.2
2017-Aug-07 20:57N 49°52' W 002°43'  
Track history (hours):
 
Tides and Currents Weather Stations Pressure Air Temp Water Temp Dewpoint Dewpoint Depression Visibility Wind Speed Wind Dir Waves Ship Positions

Oceanographic research ship Celtic Explorer (Ireland)

Detailed information on ship capabilities available from University of Delaware's Ocean Information Center.

Last reported at 2017-Aug-17 20:51 UTC. Time now 2017-Aug-19 15:00 UTC.
Position N 55°58' E 007°45'.

Type: . MMSI: 250487000.

Date/timePositionNaut miles runAvg speedWind from/ knotsBaromVisibWave heightAir tempDewpointWater temp
2017-Aug-17 20:51N 55°58' E 007°45'510.9
2017-Aug-17 20:21N 55°53' E 007°41'410.9
2017-Aug-17 19:59N 55°50' E 007°37'510.8
2017-Aug-17 19:30N 55°45' E 007°33'510.8
2017-Aug-17 19:00N 55°41' E 007°28'510.8
2017-Aug-17 18:30N 55°36' E 007°23'4 8.8
2017-Aug-17 18:00N 55°32' E 007°27'5 9.7
2017-Aug-17 17:30N 55°28' E 007°32'5 9.6
2017-Aug-17 17:00N 55°25' E 007°38'5 9.8
2017-Aug-17 16:30N 55°21' E 007°43'5 9.8
2017-Aug-17 16:00N 55°17' E 007°49'5 9.7
2017-Aug-17 15:31N 55°14' E 007°54'5 9.6
2017-Aug-17 15:00N 55°10' E 007°60'10 4.0
2017-Aug-17 12:27N 54°60' E 008°03'2 3.5
2017-Aug-17 11:59N 54°60' E 007°60'0 0.3
2017-Aug-17 11:30N 54°60' E 007°60'5 9.3
2017-Aug-17 11:00N 54°58' E 007°53'5 9.2
2017-Aug-17 10:30N 54°57' E 007°45'4 8.8
2017-Aug-17 10:00N 54°59' E 007°38'2 3.5
2017-Aug-17 09:30N 55°00' E 007°35'4 7.3
2017-Aug-17 09:00N 55°00' E 007°29'5 9.2
2017-Aug-17 08:30N 55°00' E 007°21'5 9.4
2017-Aug-17 08:00N 54°60' E 007°12'5 9.2
2017-Aug-17 07:30N 55°00' E 007°04'2 4.9
2017-Aug-17 07:00N 55°00' E 007°00'4 8.4
2017-Aug-17 06:30N 55°00' E 006°53'5 9.6
2017-Aug-17 06:00N 55°00' E 006°44'5 9.6
2017-Aug-17 05:30N 55°01' E 006°36'5 9.7
2017-Aug-17 05:00N 55°01' E 006°28'243 8.9
2017-Aug-16 01:35N 55°00' W 000°36'210.2
2017-Aug-16 01:22N 54°60' W 000°40'0 1.3
2017-Aug-16 00:59N 54°60' W 000°39'1810.1
2017-Aug-15 23:13N 54°44' W 000°24'2 9.7
2017-Aug-15 23:00N 54°42' W 000°22'5 9.6
2017-Aug-15 22:30N 54°38' W 000°18'5 9.4
2017-Aug-15 22:00N 54°34' W 000°14'5 9.1
2017-Aug-15 21:30N 54°30' W 000°10'1 2.2
2017-Aug-15 21:00N 54°29' W 000°09'5 9.2
2017-Aug-15 20:31N 54°25' W 000°05'5 9.4
2017-Aug-15 20:00N 54°21' W 000°01'5 9.7
2017-Aug-15 19:30N 54°17' E 000°03'5 9.9
2017-Aug-15 19:00N 54°13' E 000°07'510.0
2017-Aug-15 18:30N 54°08' E 000°11'510.4
2017-Aug-15 18:00N 54°04' E 000°16'5 5.7
2017-Aug-15 17:12N 53°60' E 000°20'210.1
2017-Aug-15 17:00N 54°00' E 000°23'510.6
2017-Aug-15 16:29N 54°00' E 000°33'510.5
2017-Aug-15 15:59N 54°00' E 000°42'45 5.0
2017-Aug-15 06:59N 53°33' E 001°43'510.6
2017-Aug-15 06:29N 53°28' E 001°40'511.0
2017-Aug-15 06:00N 53°23' E 001°37'4 8.1
2017-Aug-15 05:30N 53°20' E 001°40'2 4.3
2017-Aug-15 05:00N 53°18' E 001°41'611.1
2017-Aug-15 04:30N 53°13' E 001°44'611.0
2017-Aug-15 04:00N 53°08' E 001°50'510.4
2017-Aug-15 03:30N 53°04' E 001°56'5 9.7
2017-Aug-15 03:00N 53°00' E 002°01'5 9.2
2017-Aug-15 02:30N 52°57' E 002°06'4 8.5
2017-Aug-15 02:00N 52°53' E 002°09'4 7.6
2017-Aug-15 01:31N 52°50' E 002°10'1 2.3
2017-Aug-15 01:00N 52°49' E 002°11'4 8.8
2017-Aug-15 00:30N 52°45' E 002°15'4 9.0
2017-Aug-15 00:00N 52°41' E 002°19'5 9.4
2017-Aug-14 23:30N 52°37' E 002°23'5 9.8
2017-Aug-14 23:00N 52°33' E 002°27'3 6.8
2017-Aug-14 22:30N 52°30' E 002°30'2 3.6
2017-Aug-14 22:00N 52°28' E 002°29'510.7
2017-Aug-14 21:30N 52°24' E 002°24'611.2
2017-Aug-14 21:00N 52°19' E 002°19'711.4
2017-Aug-14 20:23N 52°13' E 002°13'411.6
2017-Aug-14 20:00N 52°09' E 002°09'611.9
2017-Aug-14 19:30N 52°04' E 002°04'5 9.2
2017-Aug-14 19:00N 52°00' E 002°00'1 1.9
2017-Aug-14 18:30N 52°00' E 002°02'5 9.9
2017-Aug-14 17:59N 51°59' E 002°10'6 8.3
2017-Aug-14 17:13N 51°57' E 002°20'1 2.9
2017-Aug-14 16:55N 51°56' E 002°21'4 5.8
2017-Aug-14 16:12N 51°54' E 002°27'210.2
2017-Aug-14 16:00N 51°53' E 002°30'510.6
2017-Aug-14 15:30N 51°50' E 002°37'510.3
2017-Aug-14 15:00N 51°47' E 002°43'510.2
2017-Aug-14 14:30N 51°43' E 002°49'2 4.2
2017-Aug-14 14:00N 51°42' E 002°51'5 9.1
2017-Aug-14 13:30N 51°43' E 002°58'611.6
2017-Aug-14 13:00N 51°45' E 003°07'612.0
2017-Aug-14 12:29N 51°49' E 003°16'1734.2
2017-Aug-14 11:59N 51°57' E 003°41'0 0.0
2017-Aug-14 11:30N 51°57' E 003°41'0 0.0
2017-Aug-14 11:00N 51°57' E 003°41'4 7.5
2017-Aug-14 10:30N 51°60' E 003°44'2 4.2
2017-Aug-14 10:00N 52°02' E 003°44'611.1
2017-Aug-14 09:30N 52°07' E 003°46'510.1
2017-Aug-14 09:00N 52°12' E 003°46'5 9.8
2017-Aug-14 08:29N 52°17' E 003°48'5 9.6
2017-Aug-14 08:00N 52°22' E 003°49'5 9.4
2017-Aug-14 07:26N 52°27' E 003°51'5 8.1
2017-Aug-14 06:53N 52°31' E 003°54'6 9.6
2017-Aug-14 06:13N 52°31' E 004°05'3 9.5
2017-Aug-14 05:55N 52°31' E 004°10'4 9.9
2017-Aug-14 05:30N 52°31' E 004°16'2 4.0
2017-Aug-14 05:00N 52°31' E 004°20'510.0
2017-Aug-14 04:30N 52°36' E 004°18'511.0
2017-Aug-14 04:00N 52°40' E 004°13'151 4.2
2017-Aug-12 16:25N 54°02' E 007°45'510.5
2017-Aug-12 15:59N 54°01' E 007°52'510.3
2017-Aug-12 15:30N 54°01' E 008°01'3 7.0
2017-Aug-12 15:00N 54°00' E 008°07'2 3.1
2017-Aug-12 14:30N 54°00' E 008°09'510.6
2017-Aug-12 14:00N 53°60' E 008°18'510.0
2017-Aug-12 13:30N 53°59' E 008°27'5 9.2
2017-Aug-12 13:00N 53°58' E 008°34'4 8.5
2017-Aug-12 12:30N 53°56' E 008°40'3 6.7
2017-Aug-12 12:00N 53°53' E 008°43'2 3.6
2017-Aug-12 11:30N 53°51' E 008°45'510.8
2017-Aug-12 11:00N 53°51' E 008°54'612.6
2017-Aug-12 10:30N 53°53' E 009°05'612.1
2017-Aug-12 10:00N 53°53' E 009°15'713.4
2017-Aug-12 09:30N 53°48' E 009°23'713.7
2017-Aug-12 09:01N 53°42' E 009°30'510.6
2017-Aug-12 08:30N 53°37' E 009°33'3 6.0
2017-Aug-12 08:01N 53°35' E 009°37'612.9
2017-Aug-12 07:30N 53°34' E 009°47'4 8.5
2017-Aug-12 07:01N 53°33' E 009°54'3 6.6
2017-Aug-12 06:31N 53°32' E 009°59'0 0.1
2017-Aug-12 06:00N 53°32' E 009°59'0 0.0
2017-Aug-12 05:30N 53°32' E 009°59'0 0.0
2017-Aug-12 05:00N 53°32' E 009°59'0 0.0
2017-Aug-12 04:30N 53°32' E 009°59'0 0.0
2017-Aug-12 04:00N 53°32' E 009°59'0 0.0
2017-Aug-12 03:30N 53°32' E 009°59'0 0.0
2017-Aug-12 03:00N 53°32' E 009°59'0 0.0
2017-Aug-12 02:30N 53°32' E 009°59'0 0.0
2017-Aug-12 02:00N 53°32' E 009°59'0 0.0
2017-Aug-12 01:30N 53°32' E 009°59'0 0.0
2017-Aug-12 01:00N 53°32' E 009°59'0 0.0
2017-Aug-12 00:30N 53°32' E 009°59'0 0.0
2017-Aug-12 00:00N 53°32' E 009°59'0 0.0
2017-Aug-11 23:30N 53°32' E 009°59'0 0.0
2017-Aug-11 23:00N 53°32' E 009°59'0 0.0
2017-Aug-11 22:30N 53°32' E 009°59'0 0.0
2017-Aug-11 22:00N 53°32' E 009°59'0 0.0
2017-Aug-11 21:30N 53°32' E 009°59'0 0.0
2017-Aug-11 21:00N 53°32' E 009°59'0 0.0
2017-Aug-11 20:30N 53°32' E 009°59'0 0.0
2017-Aug-11 20:00N 53°32' E 009°59'0 0.0
2017-Aug-11 19:30N 53°32' E 009°59'0 0.0
2017-Aug-11 19:00N 53°32' E 009°59'0 0.0
2017-Aug-11 18:27N 53°32' E 009°59'0 0.0
2017-Aug-11 18:00N 53°32' E 009°59'0 0.0
2017-Aug-11 17:30N 53°32' E 009°59'0 0.0
2017-Aug-11 17:00N 53°32' E 009°59'0 0.0
2017-Aug-11 16:30N 53°32' E 009°59'0 0.0
2017-Aug-11 16:00N 53°32' E 009°59'0 0.0
2017-Aug-11 15:30N 53°32' E 009°59'0 0.0
2017-Aug-11 15:00N 53°32' E 009°59'0 0.0
2017-Aug-11 14:30N 53°32' E 009°59'0 0.0
2017-Aug-11 13:30N 53°32' E 009°59'0 0.0
2017-Aug-11 13:00N 53°32' E 009°59'0 0.0
2017-Aug-11 12:30N 53°32' E 009°59'0 0.0
2017-Aug-11 12:00N 53°32' E 009°59'0 0.0
2017-Aug-11 11:30N 53°32' E 009°59'0 0.0
2017-Aug-11 11:00N 53°32' E 009°59'0 0.0
2017-Aug-11 10:30N 53°32' E 009°59'0 0.0
2017-Aug-11 10:00N 53°32' E 009°59'0 0.0
2017-Aug-11 09:30N 53°32' E 009°59'0 0.0
2017-Aug-11 09:00N 53°32' E 009°59'0 0.0
2017-Aug-11 08:30N 53°32' E 009°59'0 0.0
2017-Aug-11 08:00N 53°32' E 009°59'0 0.0
2017-Aug-11 07:30N 53°32' E 009°59'0 0.0
2017-Aug-11 07:00N 53°32' E 009°59'0 0.0
2017-Aug-11 06:30N 53°32' E 009°59'0 0.0
2017-Aug-11 06:00N 53°32' E 009°59'0 0.0
2017-Aug-11 05:30N 53°32' E 009°59'0 0.0
2017-Aug-11 05:00N 53°32' E 009°59'0 0.0
2017-Aug-11 04:30N 53°32' E 009°59'0 0.0
2017-Aug-11 04:00N 53°32' E 009°59'0 0.0
2017-Aug-11 03:30N 53°32' E 009°59'0 0.0
2017-Aug-11 03:00N 53°32' E 009°59'0 0.0
2017-Aug-11 02:30N 53°32' E 009°59'0 0.0
2017-Aug-11 02:00N 53°32' E 009°59'0 0.0
2017-Aug-11 01:30N 53°32' E 009°59'0 0.0
2017-Aug-11 01:00N 53°32' E 009°59'0 0.0
2017-Aug-11 00:30N 53°32' E 009°59'0 0.0
2017-Aug-11 00:00N 53°32' E 009°59'0 0.0
2017-Aug-10 23:30N 53°32' E 009°59'0 0.0
2017-Aug-10 23:00N 53°32' E 009°59'0 0.0
2017-Aug-10 22:30N 53°32' E 009°59'0 0.0
2017-Aug-10 22:00N 53°32' E 009°59'0 0.0
2017-Aug-10 21:30N 53°32' E 009°59'0 0.0
2017-Aug-10 21:00N 53°32' E 009°59'0 0.0
2017-Aug-10 20:30N 53°32' E 009°59'0 0.0
2017-Aug-10 20:00N 53°32' E 009°59'0 0.0
2017-Aug-10 19:30N 53°32' E 009°59'0 0.0
2017-Aug-10 19:00N 53°32' E 009°59'0 0.0
2017-Aug-10 18:30N 53°32' E 009°59'0 0.0
2017-Aug-10 18:00N 53°32' E 009°59'0 0.0
2017-Aug-10 17:30N 53°32' E 009°59'0 0.1
2017-Aug-10 17:00N 53°32' E 009°59'0 0.0
2017-Aug-10 16:30N 53°32' E 009°59'0 0.0
2017-Aug-10 16:00N 53°32' E 009°59'0 0.0
2017-Aug-10 15:30N 53°32' E 009°59'0 0.0
2017-Aug-10 15:00N 53°32' E 009°59'0 0.0
2017-Aug-10 14:30N 53°32' E 009°59'0 0.0
2017-Aug-10 13:57N 53°32' E 009°59'0 0.0
2017-Aug-10 13:30N 53°32' E 009°59'0 0.0
2017-Aug-10 13:00N 53°32' E 009°59'0 0.0
2017-Aug-10 12:30N 53°32' E 009°59'0 0.0
2017-Aug-10 12:00N 53°32' E 009°59'0 0.4
2017-Aug-10 11:31N 53°32' E 009°59'4 8.1
2017-Aug-10 11:00N 53°33' E 009°53'5 9.8
2017-Aug-10 10:30N 53°34' E 009°45'511.0
2017-Aug-10 10:01N 53°36' E 009°36'611.3
2017-Aug-10 09:30N 53°40' E 009°30'611.6
2017-Aug-10 09:00N 53°45' E 009°25'611.4
2017-Aug-10 08:30N 53°50' E 009°21'510.9
2017-Aug-10 08:00N 53°53' E 009°12'510.0
2017-Aug-10 07:30N 53°52' E 009°04'510.5
2017-Aug-10 07:00N 53°51' E 008°55'510.0
2017-Aug-10 06:31N 53°50' E 008°47'4 7.9
2017-Aug-10 06:00N 53°53' E 008°42'5 9.3
2017-Aug-10 05:30N 53°57' E 008°38'1010.8
2017-Aug-10 04:33N 53°59' E 008°21'12 9.5
2017-Aug-10 03:15N 53°58' E 007°60'2 5.1
2017-Aug-10 02:51N 53°58' E 007°56'1 3.1
2017-Aug-10 02:30N 53°58' E 007°54'101 6.9
2017-Aug-09 11:57N 53°30' E 005°10'3 7.0
2017-Aug-09 11:30N 53°29' E 005°05'3 7.0
2017-Aug-09 11:00N 53°28' E 004°60'3 6.9
2017-Aug-09 10:30N 53°27' E 004°55'4 7.0
2017-Aug-09 10:00N 53°26' E 004°49'4110.2
2017-Aug-09 06:00N 52°51' E 004°14'10810.2
2017-Aug-08 19:24N 51°30' E 002°17'4 9.1
2017-Aug-08 19:00N 51°27' E 002°13'5 9.6
2017-Aug-08 18:30N 51°22' E 002°10'5 9.9
2017-Aug-08 18:00N 51°18' E 002°07'510.1
2017-Aug-08 17:30N 51°13' E 002°03'5 9.9
2017-Aug-08 17:00N 51°11' E 001°57'510.3
2017-Aug-08 16:30N 51°08' E 001°49'510.7
2017-Aug-08 16:00N 51°05' E 001°43'611.1
2017-Aug-08 15:30N 51°01' E 001°37'611.5
2017-Aug-08 15:00N 50°57' E 001°30'5910.5
2017-Aug-08 09:23N 50°22' E 000°15'512.5
2017-Aug-08 09:00N 50°21' E 000°07'912.4
2017-Aug-08 08:18N 50°19' W 000°06'4510.6
2017-Aug-08 04:01N 50°07' W 001°14'0 8.3
2017-Aug-08 04:00N 50°07' W 001°15'4 7.9
2017-Aug-08 03:30N 50°06' W 001°21'5 7.7
2017-Aug-08 02:52N 50°05' W 001°28'2 6.6
2017-Aug-08 02:30N 50°04' W 001°31'3 6.5
2017-Aug-08 02:00N 50°04' W 001°36'3 6.2
2017-Aug-08 01:30N 50°03' W 001°41'3 6.5
2017-Aug-08 01:00N 50°02' W 001°46'3 7.0
2017-Aug-08 00:30N 50°01' W 001°51'4 7.7
2017-Aug-08 00:00N 49°60' W 001°57'2910.0
2017-Aug-07 21:03N 49°52' W 002°41'111.2
2017-Aug-07 20:57N 49°52' W 002°43'  

Dump ship's entire track history